createdAt,value
2019-05-20T00:00:31.506Z,13.27
2019-05-20T00:03:05.108Z,12.40
2019-05-20T00:05:37.516Z,12.27
2019-05-20T00:08:09.852Z,13.17
2019-05-20T00:10:41.404Z,11.77
2019-05-20T00:13:16.624Z,13.07
2019-05-20T00:15:48.879Z,13.40
2019-05-20T00:18:23.564Z,11.97
2019-05-20T00:20:57.058Z,12.27
2019-05-20T00:23:30.074Z,13.57
2019-05-20T00:26:04.014Z,12.30
2019-05-20T00:28:37.915Z,13.00
2019-05-20T00:31:14.717Z,12.83
2019-05-20T00:33:46.351Z,12.63
2019-05-20T00:36:20.984Z,12.60
2019-05-20T00:39:10.896Z,12.50
2019-05-20T00:41:44.536Z,13.27
2019-05-20T00:44:19.243Z,12.68
2019-05-20T00:46:51.123Z,13.27
2019-05-20T00:49:23.903Z,12.07
2019-05-20T00:51:55.556Z,13.60
2019-05-20T00:54:28.854Z,12.80
2019-05-20T00:57:00.536Z,13.43
2019-05-20T00:59:33.164Z,13.57
2019-05-20T01:02:09.158Z,13.60
2019-05-20T01:04:40.854Z,13.37
2019-05-20T01:07:14.220Z,13.98
2019-05-20T01:09:46.079Z,14.50
2019-05-20T01:12:20.179Z,13.50
2019-05-20T01:14:51.779Z,14.43
2019-05-20T01:17:25.354Z,14.23
2019-05-20T01:19:56.870Z,15.27
2019-05-20T01:22:29.619Z,14.80
2019-05-20T01:25:02.194Z,14.80
2019-05-20T01:27:34.441Z,14.77
2019-05-20T01:30:07.751Z,15.40
2019-05-20T01:32:41.101Z,14.90
2019-05-20T01:35:15.172Z,15.37
2019-05-20T01:37:47.134Z,14.60
2019-05-20T01:40:20.702Z,15.27
2019-05-20T01:42:54.011Z,15.20
2019-05-20T01:45:26.012Z,15.50
2019-05-20T01:47:58.043Z,16.00
2019-05-20T01:50:30.777Z,15.90
2019-05-20T01:53:03.119Z,16.40
2019-05-20T01:55:35.031Z,16.13
2019-05-20T01:58:08.290Z,16.27
2019-05-20T02:00:42.281Z,15.90
2019-05-20T02:03:30.369Z,16.00
2019-05-20T02:05:50.133Z,16.73
2019-05-20T02:08:23.229Z,16.17
2019-05-20T02:10:56.707Z,15.87
2019-05-20T02:13:47.262Z,15.17
2019-05-20T02:16:23.617Z,14.67
2019-05-20T02:18:55.919Z,14.63
2019-05-20T02:21:30.838Z,14.60
2019-05-20T02:24:02.459Z,14.07
2019-05-20T02:26:34.990Z,14.70
2019-05-20T02:29:08.274Z,14.37
2019-05-20T02:31:40.429Z,14.10
2019-05-20T02:34:12.660Z,13.30
2019-05-20T02:36:45.261Z,12.83
2019-05-20T02:39:19.398Z,13.55
2019-05-20T02:41:51.426Z,13.30
2019-05-20T02:44:24.014Z,12.70
2019-05-20T02:46:55.995Z,12.70
2019-05-20T02:49:27.773Z,14.43
2019-05-20T02:51:59.419Z,13.33
2019-05-20T02:54:32.704Z,13.37
2019-05-20T02:57:04.270Z,13.33
2019-05-20T02:59:35.928Z,13.33
2019-05-20T03:02:09.043Z,14.20
2019-05-20T03:04:42.944Z,14.37
2019-05-20T03:07:16.571Z,14.03
2019-05-20T03:09:49.240Z,14.03
2019-05-20T03:12:25.044Z,14.77
2019-05-20T03:14:59.480Z,15.00
2019-05-20T03:17:33.246Z,14.70
2019-05-20T03:20:06.077Z,18.75
2019-05-20T03:22:38.049Z,15.13
2019-05-20T03:25:09.875Z,17.00
2019-05-20T03:27:42.402Z,18.33
2019-05-20T03:30:15.846Z,15.93
2019-05-20T03:32:50.323Z,15.13
2019-05-20T03:35:21.880Z,16.05
2019-05-20T03:37:54.930Z,15.97
2019-05-20T03:40:27.149Z,15.70
2019-05-20T03:43:00.973Z,15.97
2019-05-20T03:45:34.638Z,15.87
2019-05-20T03:48:08.259Z,16.12
2019-05-20T03:50:40.528Z,16.20
2019-05-20T03:53:12.876Z,16.37
2019-05-20T03:55:46.290Z,15.57
2019-05-20T03:58:19.977Z,17.10
2019-05-20T04:00:55.140Z,16.43
2019-05-20T04:03:28.555Z,15.87
2019-05-20T04:06:02.987Z,16.07
2019-05-20T04:08:35.102Z,17.50
2019-05-20T04:11:07.088Z,17.73
2019-05-20T04:13:39.208Z,18.33
2019-05-20T04:16:10.889Z,18.73
2019-05-20T04:18:44.169Z,18.67
2019-05-20T04:21:15.836Z,18.63
2019-05-20T04:23:47.442Z,19.30
2019-05-20T04:26:22.923Z,20.80
2019-05-20T04:28:54.738Z,21.93
2019-05-20T04:31:28.010Z,22.70
2019-05-20T04:33:59.764Z,22.77
2019-05-20T04:36:32.014Z,22.63
2019-05-20T04:39:05.602Z,20.47
2019-05-20T04:41:37.586Z,18.93
2019-05-20T04:44:10.167Z,19.80
2019-05-20T04:46:44.131Z,19.73
2019-05-20T04:49:17.164Z,20.95
2019-05-20T04:51:50.442Z,19.77
2019-05-20T04:54:25.260Z,20.80
2019-05-20T04:56:59.683Z,20.37
2019-05-20T04:59:33.706Z,22.23
2019-05-20T05:02:06.904Z,22.43
2019-05-20T05:04:39.801Z,24.43
2019-05-20T05:07:13.045Z,22.87
2019-05-20T05:09:46.459Z,22.80
2019-05-20T05:12:19.243Z,22.42
2019-05-20T05:14:52.615Z,20.57
2019-05-20T05:17:27.005Z,21.17
2019-05-20T05:19:59.098Z,21.37
2019-05-20T05:22:31.814Z,20.45
2019-05-20T05:25:04.976Z,19.00
2019-05-20T05:27:37.987Z,19.17
2019-05-20T05:30:09.991Z,19.33
2019-05-20T05:32:45.007Z,17.20
2019-05-20T05:35:18.284Z,20.37
2019-05-20T05:37:50.789Z,18.07
2019-05-20T05:40:26.019Z,18.70
2019-05-20T05:43:00.510Z,16.43
2019-05-20T05:45:33.895Z,16.23
2019-05-20T05:48:06.033Z,14.65
2019-05-20T05:50:38.966Z,16.00
2019-05-20T05:53:13.426Z,14.30
2019-05-20T05:55:45.385Z,13.30
2019-05-20T05:58:17.071Z,12.70
2019-05-20T06:00:49.916Z,12.40
2019-05-20T06:03:22.617Z,12.20
2019-05-20T06:06:10.601Z,12.07
2019-05-20T06:08:31.652Z,12.87
2019-05-20T06:11:03.833Z,12.10
2019-05-20T06:13:36.934Z,12.30
2019-05-20T06:16:08.516Z,12.90
2019-05-20T06:18:40.262Z,14.33
2019-05-20T06:21:12.231Z,15.03
2019-05-20T06:23:46.323Z,13.97
2019-05-20T06:26:18.997Z,12.53
2019-05-20T06:28:51.331Z,13.03
2019-05-20T06:31:23.099Z,11.03
2019-05-20T06:33:57.541Z,10.30
2019-05-20T06:36:29.110Z,9.87
2019-05-20T06:39:14.485Z,9.67
2019-05-20T06:41:48.006Z,8.30
2019-05-20T06:44:20.725Z,8.60
2019-05-20T06:46:54.240Z,10.77
2019-05-20T06:49:27.738Z,10.50
2019-05-20T06:52:00.593Z,10.00
2019-05-20T06:54:33.069Z,9.47
2019-05-20T06:57:07.669Z,11.77
2019-05-20T06:59:40.556Z,14.60
2019-05-20T07:02:14.784Z,13.00
2019-05-20T07:04:47.492Z,9.43
2019-05-20T07:07:21.429Z,7.47
2019-05-20T07:09:54.971Z,7.07
2019-05-20T07:12:40.122Z,6.00
2019-05-20T07:15:02.109Z,5.10
2019-05-20T07:17:39.033Z,6.13
2019-05-20T07:20:11.792Z,7.27
2019-05-20T07:22:55.593Z,8.17
2019-05-20T07:25:19.052Z,7.33
2019-05-20T07:27:52.877Z,10.83
2019-05-20T07:30:27.492Z,8.90
2019-05-20T07:32:59.427Z,10.67
2019-05-20T07:35:32.421Z,7.43
2019-05-20T07:38:04.159Z,3.07
2019-05-20T07:40:37.877Z,3.20
2019-05-20T07:43:09.782Z,4.60
2019-05-20T07:45:44.161Z,2.43
2019-05-20T07:48:16.765Z,2.00
2019-05-20T07:50:50.420Z,3.57
2019-05-20T07:53:27.279Z,2.55
2019-05-20T07:56:06.021Z,3.87
2019-05-20T07:58:41.890Z,2.13
2019-05-20T08:01:14.178Z,4.37
2019-05-20T08:03:46.839Z,2.93
2019-05-20T08:06:23.969Z,2.43
2019-05-20T08:09:01.836Z,3.80
2019-05-20T08:11:35.171Z,1.90
2019-05-20T08:14:07.952Z,1.80
2019-05-20T08:16:40.157Z,2.23
2019-05-20T08:19:13.469Z,3.63
2019-05-20T08:21:48.487Z,3.43
2019-05-20T08:24:23.210Z,1.80
2019-05-20T08:26:55.744Z,3.13
2019-05-20T08:29:29.619Z,2.33
2019-05-20T08:32:03.814Z,2.07
2019-05-20T08:34:35.732Z,2.00
2019-05-20T08:37:10.580Z,1.90
2019-05-20T08:39:44.408Z,2.73
2019-05-20T08:42:16.134Z,3.63
2019-05-20T08:44:48.719Z,2.10
2019-05-20T08:47:20.624Z,4.28
2019-05-20T08:49:52.505Z,4.40
2019-05-20T08:52:24.204Z,3.93
2019-05-20T08:54:58.254Z,1.73
2019-05-20T08:57:33.138Z,2.10
2019-05-20T09:00:09.260Z,2.10
2019-05-20T09:02:41.296Z,3.37
2019-05-20T09:05:14.650Z,2.35
2019-05-20T09:08:01.495Z,3.60
2019-05-20T09:10:24.502Z,2.27
2019-05-20T09:13:00.674Z,1.90
2019-05-20T09:15:33.321Z,3.90
2019-05-20T09:18:07.355Z,3.10
2019-05-20T09:20:39.469Z,2.33
2019-05-20T09:23:14.372Z,2.58
2019-05-20T09:25:47.966Z,2.10
2019-05-20T09:28:20.838Z,2.52
2019-05-20T09:30:56.129Z,3.40
2019-05-20T09:33:30.717Z,2.90
2019-05-20T09:36:05.250Z,2.50
2019-05-20T09:38:37.539Z,2.60
2019-05-20T09:41:10.914Z,2.93
2019-05-20T09:43:42.968Z,3.40
2019-05-20T09:46:14.510Z,4.00
2019-05-20T09:48:47.507Z,3.93
2019-05-20T09:51:20.578Z,3.83
2019-05-20T09:53:52.630Z,5.10
2019-05-20T09:56:24.671Z,9.20
2019-05-20T09:58:57.514Z,3.90
2019-05-20T10:01:31.901Z,4.43
2019-05-20T10:04:04.770Z,4.47
2019-05-20T10:06:37.264Z,3.10
2019-05-20T10:09:11.573Z,3.30
2019-05-20T10:11:46.335Z,3.20
2019-05-20T10:14:18.487Z,4.13
2019-05-20T10:16:52.531Z,4.30
2019-05-20T10:19:25.239Z,2.95
2019-05-20T10:21:57.468Z,3.23
2019-05-20T10:24:29.232Z,3.13
2019-05-20T10:27:02.349Z,3.37
2019-05-20T10:29:38.088Z,5.40
2019-05-20T10:32:12.280Z,4.07
2019-05-20T10:34:43.823Z,5.53
2019-05-20T10:37:16.439Z,3.83
2019-05-20T10:39:48.589Z,3.80
2019-05-20T10:42:23.970Z,3.20
2019-05-20T10:44:56.567Z,6.17
2019-05-20T10:47:29.382Z,10.73
2019-05-20T10:50:01.220Z,2.97
2019-05-20T10:52:36.516Z,2.83
2019-05-20T10:55:08.825Z,3.23
2019-05-20T10:57:40.795Z,2.97
2019-05-20T11:00:17.488Z,3.30
2019-05-20T11:02:50.371Z,3.43
2019-05-20T11:05:25.191Z,2.58
2019-05-20T11:07:57.023Z,4.33
2019-05-20T11:10:28.671Z,7.55
2019-05-20T11:13:04.224Z,2.63
2019-05-20T11:15:38.020Z,2.60
2019-05-20T11:18:09.558Z,2.95
2019-05-20T11:20:41.555Z,2.73
2019-05-20T11:23:14.270Z,2.80
2019-05-20T11:25:47.566Z,4.17
2019-05-20T11:28:21.965Z,2.60
2019-05-20T11:30:54.518Z,2.40
2019-05-20T11:33:29.038Z,3.17
2019-05-20T11:36:00.827Z,2.67
2019-05-20T11:38:34.552Z,3.83
2019-05-20T11:41:07.012Z,5.13
2019-05-20T11:43:40.701Z,3.45
2019-05-20T11:46:13.311Z,2.90
2019-05-20T11:48:47.474Z,3.30
2019-05-20T11:51:20.885Z,3.37
2019-05-20T11:53:54.426Z,3.17
2019-05-20T11:56:26.051Z,2.60
2019-05-20T11:58:59.804Z,2.50
2019-05-20T12:01:32.439Z,2.92
2019-05-20T12:04:04.948Z,2.80
2019-05-20T12:06:36.995Z,3.52
2019-05-20T12:09:10.861Z,2.67
2019-05-20T12:11:43.892Z,2.58
2019-05-20T12:14:16.364Z,3.93
2019-05-20T12:16:49.799Z,3.00
2019-05-20T12:19:21.413Z,4.67
2019-05-20T12:21:53.015Z,3.42
2019-05-20T12:24:27.089Z,2.70
2019-05-20T12:26:58.950Z,3.93
2019-05-20T12:29:31.850Z,2.60
2019-05-20T12:32:05.327Z,2.45
2019-05-20T12:34:38.789Z,2.90
2019-05-20T12:37:12.664Z,3.22
2019-05-20T12:39:45.771Z,2.90
2019-05-20T12:42:20.346Z,3.10
2019-05-20T12:44:53.046Z,3.05
2019-05-20T12:47:26.450Z,4.35
2019-05-20T12:49:59.203Z,2.80
2019-05-20T12:52:33.126Z,4.47
2019-05-20T12:55:09.482Z,2.50
2019-05-20T12:57:41.770Z,2.37
2019-05-20T13:00:16.085Z,3.27
2019-05-20T13:02:48.221Z,2.77
2019-05-20T13:05:20.584Z,3.40
2019-05-20T13:07:54.931Z,11.05
2019-05-20T13:10:31.766Z,3.23
2019-05-20T13:13:02.821Z,2.72
2019-05-20T13:15:36.773Z,2.25
2019-05-20T13:18:08.825Z,3.35
2019-05-20T13:20:40.623Z,4.00
2019-05-20T13:23:14.633Z,2.90
2019-05-20T13:25:47.680Z,3.70
2019-05-20T13:28:21.486Z,3.60
2019-05-20T13:30:55.060Z,2.83
2019-05-20T13:33:27.394Z,2.60
2019-05-20T13:35:59.271Z,3.08
2019-05-20T13:38:32.266Z,6.50
2019-05-20T13:41:05.051Z,5.47
2019-05-20T13:43:38.260Z,2.62
2019-05-20T13:46:09.890Z,5.60
2019-05-20T13:48:44.687Z,5.95
2019-05-20T13:51:18.349Z,3.60
2019-05-20T13:53:50.948Z,5.25
2019-05-20T13:56:24.469Z,3.00
2019-05-20T13:58:58.124Z,2.98
2019-05-20T14:01:30.026Z,2.87
2019-05-20T14:04:02.040Z,3.47
2019-05-20T14:06:34.819Z,7.05
2019-05-20T14:09:08.612Z,3.35
2019-05-20T14:11:41.981Z,3.12
2019-05-20T14:14:17.997Z,3.65
2019-05-20T14:16:51.756Z,5.58
2019-05-20T14:19:23.407Z,5.25
2019-05-20T14:21:56.199Z,3.45
2019-05-20T14:24:30.280Z,3.47
2019-05-20T14:27:02.073Z,4.72
2019-05-20T14:29:35.307Z,3.27
2019-05-20T14:32:08.534Z,3.37
2019-05-20T14:34:41.397Z,3.08
2019-05-20T14:37:15.752Z,3.10
2019-05-20T14:39:48.662Z,3.90
2019-05-20T14:42:21.043Z,2.77
2019-05-20T14:44:56.358Z,2.47
2019-05-20T14:47:28.383Z,3.55
2019-05-20T14:50:00.029Z,3.20
2019-05-20T14:52:32.331Z,3.83
2019-05-20T14:55:04.843Z,2.83
2019-05-20T14:57:36.775Z,2.80
2019-05-20T15:00:10.591Z,4.05
2019-05-20T15:02:44.054Z,4.37
2019-05-20T15:05:17.389Z,4.00
2019-05-20T15:07:49.631Z,3.95
2019-05-20T15:10:22.611Z,3.77
2019-05-20T15:12:56.755Z,6.45
2019-05-20T15:15:30.839Z,4.03
2019-05-20T15:18:02.558Z,3.58
2019-05-20T15:20:36.492Z,4.90
2019-05-20T15:23:08.080Z,7.90
2019-05-20T15:25:40.582Z,10.27
2019-05-20T15:28:12.855Z,9.68
2019-05-20T15:30:45.962Z,10.23
2019-05-20T15:33:17.742Z,10.23
2019-05-20T15:35:49.987Z,10.88
2019-05-20T15:38:21.925Z,9.08
2019-05-20T15:40:57.547Z,5.23
2019-05-20T15:43:30.927Z,4.42
2019-05-20T15:46:02.729Z,5.30
2019-05-20T15:48:36.061Z,11.20
2019-05-20T15:51:07.801Z,5.28
2019-05-20T15:53:40.246Z,9.43
2019-05-20T15:56:11.808Z,6.83
2019-05-20T15:58:45.100Z,5.40
2019-05-20T16:01:17.372Z,6.50
2019-05-20T16:03:51.475Z,7.10
2019-05-20T16:06:25.061Z,3.75
2019-05-20T16:08:57.839Z,6.10
2019-05-20T16:11:29.844Z,4.28
2019-05-20T16:14:02.251Z,8.70
2019-05-20T16:16:34.306Z,4.70
2019-05-20T16:19:07.733Z,6.42
2019-05-20T16:21:41.463Z,6.33
2019-05-20T16:24:13.244Z,3.72
2019-05-20T16:26:46.604Z,3.92
2019-05-20T16:29:20.501Z,5.03
2019-05-20T16:31:54.644Z,5.90
2019-05-20T16:34:28.348Z,5.80
2019-05-20T16:37:00.869Z,6.53
2019-05-20T16:39:34.649Z,7.20
2019-05-20T16:42:09.349Z,4.87
2019-05-20T16:44:44.461Z,8.33
2019-05-20T16:47:16.766Z,3.35
2019-05-20T16:49:51.355Z,4.83
2019-05-20T16:52:24.548Z,3.43
2019-05-20T16:54:56.430Z,4.37
2019-05-20T16:57:28.948Z,4.95
2019-05-20T17:00:01.046Z,4.30
2019-05-20T17:02:35.724Z,6.95
2019-05-20T17:05:09.429Z,5.10
2019-05-20T17:07:43.555Z,4.67
2019-05-20T17:10:19.448Z,4.37
2019-05-20T17:12:52.004Z,4.27
2019-05-20T17:15:24.154Z,9.03
2019-05-20T17:17:57.538Z,4.15
2019-05-20T17:20:30.524Z,3.33
2019-05-20T17:23:02.618Z,5.83
2019-05-20T17:25:36.958Z,3.40
2019-05-20T17:28:09.385Z,3.98
2019-05-20T17:30:45.243Z,4.28
2019-05-20T17:33:14.976Z,4.27
2019-05-20T17:35:47.085Z,4.95
2019-05-20T17:38:20.793Z,4.37
2019-05-20T17:40:53.503Z,5.12
2019-05-20T17:43:28.514Z,4.20
2019-05-20T17:46:02.763Z,5.80
2019-05-20T17:48:35.632Z,4.72
2019-05-20T17:51:09.000Z,3.50
2019-05-20T17:53:43.324Z,3.57
2019-05-20T17:56:15.507Z,4.67
2019-05-20T17:58:48.386Z,8.93
2019-05-20T18:01:20.442Z,4.70
2019-05-20T18:03:53.522Z,7.27
2019-05-20T18:06:25.787Z,6.80
2019-05-20T18:09:00.921Z,9.53
2019-05-20T18:11:34.515Z,6.60
2019-05-20T18:14:06.812Z,6.80
2019-05-20T18:16:39.250Z,5.37
2019-05-20T18:19:11.578Z,4.70
2019-05-20T18:21:44.743Z,9.10
2019-05-20T18:24:18.393Z,10.97
2019-05-20T18:26:51.618Z,4.73
2019-05-20T18:29:24.122Z,4.90
2019-05-20T18:31:56.497Z,4.90
2019-05-20T18:34:29.879Z,5.00
2019-05-20T18:37:02.187Z,5.07
2019-05-20T18:39:38.729Z,4.00
2019-05-20T18:42:12.424Z,4.20
2019-05-20T18:44:48.678Z,4.50
2019-05-20T18:47:23.757Z,4.17
2019-05-20T18:49:57.729Z,6.03
2019-05-20T18:52:30.703Z,4.90
2019-05-20T18:55:03.163Z,4.87
2019-05-20T18:57:37.580Z,5.07
2019-05-20T19:00:13.919Z,4.50
2019-05-20T19:02:47.054Z,7.10
2019-05-20T19:05:20.680Z,5.12
2019-05-20T19:07:53.950Z,4.03
2019-05-20T19:10:27.245Z,3.80
2019-05-20T19:13:01.042Z,7.57
2019-05-20T19:15:35.682Z,4.00
2019-05-20T19:18:11.030Z,4.03
2019-05-20T19:20:43.702Z,3.93
2019-05-20T19:23:17.827Z,3.80
2019-05-20T19:25:50.899Z,5.33
2019-05-20T19:28:25.424Z,5.50
2019-05-20T19:31:01.635Z,4.53
2019-05-20T19:33:34.322Z,6.23
2019-05-20T19:36:07.416Z,4.10
2019-05-20T19:38:40.964Z,4.70
2019-05-20T19:41:14.708Z,4.00
2019-05-20T19:43:47.640Z,3.80
2019-05-20T19:46:23.212Z,3.52
2019-05-20T19:48:55.211Z,3.70
2019-05-20T19:51:27.143Z,3.60
2019-05-20T19:53:59.694Z,3.40
2019-05-20T19:56:32.940Z,3.57
2019-05-20T19:59:06.054Z,3.43
2019-05-20T20:01:40.184Z,7.63
2019-05-20T20:04:14.247Z,5.10
2019-05-20T20:06:48.719Z,4.77
2019-05-20T20:09:22.022Z,4.33
2019-05-20T20:11:54.741Z,4.27
2019-05-20T20:14:27.216Z,5.03
2019-05-20T20:17:00.871Z,5.20
2019-05-20T20:19:32.692Z,4.93
2019-05-20T20:22:08.216Z,5.50
2019-05-20T20:24:44.410Z,5.20
2019-05-20T20:27:19.556Z,5.07
2019-05-20T20:29:51.304Z,5.47
2019-05-20T20:32:36.796Z,7.30
2019-05-20T20:34:57.724Z,6.37
2019-05-20T20:37:32.258Z,4.93
2019-05-20T20:40:06.734Z,4.53
2019-05-20T20:42:40.883Z,4.40
2019-05-20T20:45:13.265Z,4.70
2019-05-20T20:47:45.059Z,5.13
2019-05-20T20:50:20.508Z,4.97
2019-05-20T20:52:52.931Z,5.53
2019-05-20T20:55:27.553Z,4.87
2019-05-20T20:57:59.399Z,6.33
2019-05-20T21:00:31.192Z,5.17
2019-05-20T21:03:04.541Z,4.93
2019-05-20T21:05:36.775Z,6.27
2019-05-20T21:08:08.390Z,4.73
2019-05-20T21:10:40.886Z,5.30
2019-05-20T21:13:16.835Z,5.47
2019-05-20T21:15:49.448Z,6.73
2019-05-20T21:18:23.660Z,5.53
2019-05-20T21:20:56.021Z,6.00
2019-05-20T21:23:28.459Z,7.53
2019-05-20T21:26:03.135Z,5.97
2019-05-20T21:28:37.640Z,5.70
2019-05-20T21:31:12.304Z,5.77
2019-05-20T21:33:45.028Z,7.73
2019-05-20T21:36:17.323Z,5.73
2019-05-20T21:38:50.852Z,7.93
2019-05-20T21:41:27.878Z,7.20
2019-05-20T21:44:02.088Z,8.10
2019-05-20T21:46:36.880Z,8.07
2019-05-20T21:49:08.461Z,10.53
2019-05-20T21:51:43.487Z,8.97
2019-05-20T21:54:15.576Z,8.33
2019-05-20T21:56:50.327Z,8.27
2019-05-20T21:59:24.634Z,8.10
2019-05-20T22:01:58.565Z,8.33
2019-05-20T22:04:31.093Z,9.17
2019-05-20T22:07:03.949Z,8.73
2019-05-20T22:09:39.269Z,9.20
2019-05-20T22:12:13.327Z,8.57
2019-05-20T22:14:46.096Z,9.50
2019-05-20T22:17:21.120Z,9.33
2019-05-20T22:19:52.867Z,9.30
2019-05-20T22:22:32.707Z,9.03
2019-05-20T22:25:09.856Z,9.08
2019-05-20T22:27:41.821Z,9.17
2019-05-20T22:30:15.219Z,8.80
2019-05-20T22:32:48.235Z,8.50
2019-05-20T22:35:21.000Z,8.28
2019-05-20T22:37:54.250Z,9.37
2019-05-20T22:40:28.616Z,8.73
2019-05-20T22:43:01.021Z,8.13
2019-05-20T22:45:33.334Z,8.07
2019-05-20T22:48:06.396Z,9.77
2019-05-20T22:50:40.420Z,8.40
2019-05-20T22:53:14.611Z,11.17
2019-05-20T22:55:47.321Z,8.70
2019-05-20T22:58:21.919Z,9.20
2019-05-20T23:00:57.572Z,9.43
2019-05-20T23:03:30.898Z,9.37
2019-05-20T23:06:05.859Z,9.10
2019-05-20T23:08:39.885Z,8.77
2019-05-20T23:11:13.692Z,8.38
2019-05-20T23:13:46.514Z,9.43
2019-05-20T23:16:19.991Z,8.98
2019-05-20T23:18:52.996Z,8.73
2019-05-20T23:21:25.867Z,8.40
2019-05-20T23:23:58.948Z,8.60
2019-05-20T23:26:31.083Z,13.90
2019-05-20T23:29:04.308Z,8.43
2019-05-20T23:31:36.754Z,8.20
2019-05-20T23:34:12.766Z,8.37
2019-05-20T23:36:44.220Z,8.53
2019-05-20T23:39:16.658Z,9.15
2019-05-20T23:41:48.924Z,9.00
2019-05-20T23:44:23.004Z,9.20
2019-05-20T23:46:56.079Z,8.00
2019-05-20T23:49:29.871Z,9.17
2019-05-20T23:52:02.953Z,9.03
2019-05-20T23:54:36.694Z,10.30
2019-05-20T23:57:08.972Z,9.93
2019-05-20T23:59:42.849Z,8.73
